Ambia, Indiana
Current Conditions -  °F | °C
As of 5:15 PM on Saturday 25 Oct 2014 (Local Time) from KDNV Reporting Station
Clear Clear  
Wind Chill: 24°   Ceiling: Unl
Heat Index: 24°   Visibility: 7mi
Dew Point:   Wind: 12mph
Humidity: 37%   Direction: 300°WNW
Pressure: 29.93"   Gusts: 16mph
Location:  40.49°N, 87.52°W
Report Text: KDNV 252115Z AUTO 30010G14KT 7SM CLR 24/08 A2993 RMK AO2 T02350082
Loading
Personal Weather Stations






























Interactive Weather Map
Tropical Storm Tracking
New forecast layout! Learn more

10-Day Weather Forecast

Advertisements
Track Severe Weather on mobile